Time;durP1;ratioP1;P1;durP2;ratioP2;P2;SDS_P1;SDS_P2;PMS_P1;PMS_P2;Temp;Humidity;BMP_temperature;BMP_pressure;BME280_temperature;BME280_humidity;BME280_pressure;Samples;Min_cycle;Max_cycle;Signal;HPM_P1;HPM_P2
2021/01/17 00:00:34;;;;;;;46.90;25.85;;;;;;;;;;5053231;28;20466;-76
2021/01/17 00:03:01;;;;;;;49.47;28.13;;;;;;;;;;5052974;28;20021;-77
2021/01/17 00:05:28;;;;;;;53.20;28.70;;;;;;;;;;5054483;28;20013;-77
2021/01/17 00:07:54;;;;;;;51.17;28.60;;;;;;;;;;5054439;28;20017;-77
2021/01/17 00:10:21;;;;;;;48.13;26.13;;;;;;;;;;5053040;28;20017;-78
2021/01/17 00:12:48;;;;;;;48.63;27.90;;;;;;;;;;5053049;28;20488;-76
2021/01/17 00:15:15;;;;;;;48.85;27.25;;;;;;;;;;5052757;28;20028;-76
2021/01/17 00:17:41;;;;;;;46.45;25.70;;;;;;;;;;5052973;28;20071;-77
2021/01/17 00:20:08;;;;;;;49.55;28.20;;;;;;;;;;5052726;28;20017;-76
2021/01/17 00:22:34;;;;;;;48.42;26.60;;;;;;;;;;5057772;28;20016;-76
2021/01/17 00:25:00;;;;;;;49.70;28.33;;;;;;;;;;5072531;28;20369;-76
2021/01/17 00:27:26;;;;;;;48.40;27.63;;;;;;;;;;5072754;28;20390;-76
2021/01/17 00:29:52;;;;;;;48.55;27.83;;;;;;;;;;5072707;28;20024;-76
2021/01/17 00:32:18;;;;;;;46.38;26.20;;;;;;;;;;5073980;28;20025;-77
2021/01/17 00:34:45;;;;;;;46.70;25.67;;;;;;;;;;5072373;28;20445;-77
2021/01/17 00:37:14;;;;;;;36.15;21.17;;;;;;;;;;5071986;28;20024;-76
2021/01/17 00:39:40;;;;;;;48.80;27.10;;;;;;;;;;5073749;28;20024;-77
2021/01/17 00:42:10;;;;;;;50.85;27.75;;;;;;;;;;5071955;28;20639;-76
2021/01/17 00:44:36;;;;;;;45.30;25.95;;;;;;;;;;5072452;28;20021;-77
2021/01/17 00:47:03;;;;;;;41.47;20.88;;;;;;;;;;5073309;28;20016;-77
2021/01/17 00:49:29;;;;;;;47.65;26.23;;;;;;;;;;5073085;28;20016;-77
2021/01/17 00:51:55;;;;;;;47.30;22.70;;;;;;;;;;5072897;28;20028;-76
2021/01/17 00:54:21;;;;;;;47.42;25.63;;;;;;;;;;5072513;28;20012;-76
2021/01/17 00:56:47;;;;;;;58.05;28.92;;;;;;;;;;5071683;28;20128;-76
2021/01/17 00:59:13;;;;;;;49.65;27.92;;;;;;;;;;5071670;28;20438;-77
2021/01/17 01:01:43;;;;;;;47.85;26.65;;;;;;;;;;5072063;28;20365;-76
2021/01/17 01:04:10;;;;;;;45.47;24.02;;;;;;;;;;5071832;28;20169;-77
2021/01/17 01:06:36;;;;;;;50.28;26.60;;;;;;;;;;5071915;28;20021;-76
2021/01/17 01:09:06;;;;;;;50.33;26.20;;;;;;;;;;5071687;28;20130;-76
2021/01/17 01:11:32;;;;;;;49.33;26.60;;;;;;;;;;5071812;28;20023;-76
2021/01/17 01:13:58;;;;;;;58.50;28.83;;;;;;;;;;5072771;28;20457;-77
2021/01/17 01:16:24;;;;;;;51.33;26.55;;;;;;;;;;5072972;28;20043;-76
2021/01/17 01:18:50;;;;;;;48.53;27.52;;;;;;;;;;5071685;28;20020;-76
2021/01/17 01:21:24;;;;;;;53.10;27.30;;;;;;;;;;5072720;28;20031;-77
2021/01/17 01:23:50;;;;;;;45.28;25.13;;;;;;;;;;5072741;28;20021;-76
2021/01/17 01:26:20;;;;;;;50.08;26.50;;;;;;;;;;5071348;28;20016;-76
2021/01/17 01:28:46;;;;;;;54.53;29.05;;;;;;;;;;5072936;28;20016;-76
2021/01/17 01:31:15;;;;;;;44.58;24.42;;;;;;;;;;5071334;28;20032;-77
2021/01/17 01:33:41;;;;;;;49.90;28.50;;;;;;;;;;5071600;28;20020;-77
2021/01/17 01:36:07;;;;;;;55.28;28.85;;;;;;;;;;5071168;28;20028;-77
2021/01/17 01:38:33;;;;;;;47.60;25.33;;;;;;;;;;5071419;28;20031;-77
2021/01/17 01:40:59;;;;;;;53.72;28.33;;;;;;;;;;5071531;28;20047;-77
2021/01/17 01:43:25;;;;;;;53.13;28.10;;;;;;;;;;5070908;28;20056;-77
2021/01/17 01:45:52;;;;;;;55.97;27.95;;;;;;;;;;5071289;28;20016;-77
2021/01/17 01:48:18;;;;;;;47.30;25.55;;;;;;;;;;5071101;28;20020;-76
2021/01/17 01:50:46;;;;;;;48.00;26.13;;;;;;;;;;5071248;28;20065;-76
2021/01/17 01:53:13;;;;;;;46.35;24.08;;;;;;;;;;5071045;28;20115;-76
2021/01/17 01:55:41;;;;;;;53.55;27.40;;;;;;;;;;5071126;28;20027;-76
2021/01/17 01:58:08;;;;;;;55.03;28.05;;;;;;;;;;5072270;28;20158;-76
2021/01/17 02:00:34;;;;;;;45.88;23.63;;;;;;;;;;5071181;28;20021;-77
2021/01/17 02:03:00;;;;;;;52.28;27.63;;;;;;;;;;5071160;28;20086;-77
2021/01/17 02:05:27;;;;;;;56.05;28.00;;;;;;;;;;5070147;28;20028;-76
2021/01/17 02:08:02;;;;;;;61.08;30.05;;;;;;;;;;5072131;28;20024;-77
2021/01/17 02:10:28;;;;;;;56.70;29.13;;;;;;;;;;5072413;28;20021;-77
2021/01/17 02:12:59;;;;;;;48.92;24.13;;;;;;;;;;5071013;28;20020;-77
2021/01/17 02:15:28;;;;;;;51.97;26.27;;;;;;;;;;5072079;28;20028;-75
2021/01/17 02:17:54;;;;;;;58.40;28.67;;;;;;;;;;5070993;28;20050;-77
2021/01/17 02:20:23;;;;;;;54.53;26.33;;;;;;;;;;5070950;28;20029;-77
2021/01/17 02:23:02;;;;;;;57.83;28.38;;;;;;;;;;5070971;28;20040;-77
2021/01/17 02:25:38;;;;;;;61.75;30.27;;;;;;;;;;5070621;28;20058;-77
2021/01/17 02:28:06;;;;;;;56.28;27.58;;;;;;;;;;5071928;28;20023;-76
2021/01/17 02:30:33;;;;;;;51.28;25.95;;;;;;;;;;5072179;28;20019;-76
2021/01/17 02:33:09;;;;;;;55.47;27.85;;;;;;;;;;5067872;28;20021;-77
2021/01/17 02:35:36;;;;;;;52.92;26.88;;;;;;;;;;5061327;28;20029;-77
2021/01/17 02:38:13;;;;;;;58.25;28.52;;;;;;;;;;5061573;28;20387;-77
2021/01/17 02:40:58;;;;;;;50.25;25.90;;;;;;;;;;5060148;28;20021;-77
2021/01/17 02:43:25;;;;;;;57.97;27.77;;;;;;;;;;5060545;28;20470;-76
2021/01/17 02:45:51;;;;;;;58.22;29.02;;;;;;;;;;5062483;28;20027;-77
2021/01/17 02:48:17;;;;;;;51.35;28.02;;;;;;;;;;5060697;28;20016;-77
2021/01/17 02:50:43;;;;;;;51.47;25.75;;;;;;;;;;5061286;28;20027;-76
2021/01/17 02:53:19;;;;;;;54.53;25.73;;;;;;;;;;5061297;28;20056;-76
2021/01/17 02:55:45;;;;;;;56.85;27.63;;;;;;;;;;5060801;28;20020;-77
2021/01/17 02:58:13;;;;;;;51.47;26.13;;;;;;;;;;5063070;28;20035;-78
2021/01/17 03:00:40;;;;;;;43.30;20.17;;;;;;;;;;5061522;28;20017;-77
2021/01/17 03:03:08;;;;;;;54.08;27.00;;;;;;;;;;5060881;28;20046;-77
2021/01/17 03:05:34;;;;;;;52.53;27.02;;;;;;;;;;5060613;28;20044;-77
2021/01/17 03:08:04;;;;;;;54.15;27.67;;;;;;;;;;5061478;28;20056;-77
2021/01/17 03:10:30;;;;;;;47.65;23.58;;;;;;;;;;5060973;28;20020;-77
2021/01/17 03:12:57;;;;;;;47.47;23.13;;;;;;;;;;5059595;28;20028;-77
2021/01/17 03:15:25;;;;;;;53.42;26.27;;;;;;;;;;5063123;28;20483;-77
2021/01/17 03:17:51;;;;;;;58.85;27.25;;;;;;;;;;5064892;28;20017;-77
2021/01/17 03:20:17;;;;;;;56.10;25.70;;;;;;;;;;5061689;28;20027;-77
2021/01/17 03:22:43;;;;;;;51.67;26.10;;;;;;;;;;5064260;28;20013;-77
2021/01/17 03:25:09;;;;;;;52.70;25.67;;;;;;;;;;5064516;28;20453;-76
2021/01/17 03:27:35;;;;;;;53.50;26.65;;;;;;;;;;5065328;28;20035;-76
2021/01/17 03:30:01;;;;;;;56.72;26.30;;;;;;;;;;5063246;28;20086;-76
2021/01/17 03:32:27;;;;;;;43.60;21.38;;;;;;;;;;5065179;28;20507;-76
2021/01/17 03:34:53;;;;;;;52.88;26.77;;;;;;;;;;5061518;28;20017;-77
2021/01/17 03:37:20;;;;;;;54.20;26.48;;;;;;;;;;5065545;28;20629;-76
2021/01/17 03:39:46;;;;;;;50.25;26.55;;;;;;;;;;5064316;28;20082;-76
2021/01/17 03:42:12;;;;;;;54.90;26.10;;;;;;;;;;5063520;28;20064;-76
2021/01/17 03:44:38;;;;;;;38.95;21.05;;;;;;;;;;5064254;28;20071;-76
2021/01/17 03:47:05;;;;;;;41.03;21.77;;;;;;;;;;5062565;28;20027;-76
2021/01/17 03:49:31;;;;;;;54.78;25.63;;;;;;;;;;5065143;28;20044;-76
2021/01/17 03:51:58;;;;;;;53.88;25.92;;;;;;;;;;5064227;28;20476;-76
2021/01/17 03:54:24;;;;;;;46.50;24.33;;;;;;;;;;5062212;28;20119;-76
2021/01/17 03:56:50;;;;;;;47.75;23.50;;;;;;;;;;5063957;28;20020;-76
2021/01/17 03:59:16;;;;;;;45.78;24.40;;;;;;;;;;5063273;28;20088;-77
2021/01/17 04:01:43;;;;;;;40.83;23.42;;;;;;;;;;5062688;28;20453;-76
2021/01/17 04:04:09;;;;;;;43.70;21.98;;;;;;;;;;5063302;28;20460;-76
2021/01/17 04:06:38;;;;;;;46.72;24.83;;;;;;;;;;5061975;28;20019;-76
2021/01/17 04:09:05;;;;;;;47.03;23.97;;;;;;;;;;5062153;28;20445;-77
2021/01/17 04:11:31;;;;;;;40.85;20.98;;;;;;;;;;5064389;28;20051;-76
2021/01/17 04:13:57;;;;;;;39.03;20.90;;;;;;;;;;5062081;28;20013;-76
2021/01/17 04:16:23;;;;;;;43.90;24.02;;;;;;;;;;5065302;28;20043;-76
2021/01/17 04:18:49;;;;;;;41.30;20.45;;;;;;;;;;5061429;28;20119;-76
2021/01/17 04:21:15;;;;;;;44.97;22.63;;;;;;;;;;5063028;28;20040;-77
2021/01/17 04:23:41;;;;;;;43.08;21.77;;;;;;;;;;5063349;28;20396;-77
2021/01/17 04:26:07;;;;;;;41.78;21.77;;;;;;;;;;5061103;28;20453;-77
2021/01/17 04:28:33;;;;;;;50.97;24.58;;;;;;;;;;5059550;28;20024;-77
2021/01/17 04:30:59;;;;;;;38.88;20.73;;;;;;;;;;5062081;28;20016;-77
2021/01/17 04:33:25;;;;;;;42.83;23.00;;;;;;;;;;5061376;28;20039;-78
2021/01/17 04:35:52;;;;;;;41.00;22.60;;;;;;;;;;5064169;28;20333;-77
2021/01/17 04:38:18;;;;;;;41.15;22.75;;;;;;;;;;5062243;28;20170;-76
2021/01/17 04:40:44;;;;;;;46.15;23.17;;;;;;;;;;5063743;28;20373;-76
2021/01/17 04:43:16;;;;;;;41.53;22.90;;;;;;;;;;5062771;28;20436;-76
2021/01/17 04:45:42;;;;;;;40.85;21.48;;;;;;;;;;5062613;28;20069;-76
2021/01/17 04:48:09;;;;;;;35.88;20.60;;;;;;;;;;5062979;28;20044;-77
2021/01/17 04:50:35;;;;;;;34.80;18.02;;;;;;;;;;5063838;28;20008;-77
2021/01/17 04:53:01;;;;;;;36.95;20.17;;;;;;;;;;5062692;28;20094;-77
2021/01/17 04:55:27;;;;;;;34.72;18.92;;;;;;;;;;5061203;28;20029;-77
2021/01/17 04:58:03;;;;;;;37.72;18.88;;;;;;;;;;5062693;28;20017;-78
2021/01/17 05:00:29;;;;;;;36.95;20.00;;;;;;;;;;5059552;28;20450;-77
2021/01/17 05:02:58;;;;;;;36.80;20.27;;;;;;;;;;5063602;28;20082;-77
2021/01/17 05:05:25;;;;;;;44.47;21.23;;;;;;;;;;5061219;28;20369;-76
2021/01/17 05:07:54;;;;;;;37.28;20.45;;;;;;;;;;5060602;28;20065;-77
2021/01/17 05:10:39;;;;;;;40.75;21.88;;;;;;;;;;5060526;28;20112;-76
2021/01/17 05:13:09;;;;;;;34.10;20.40;;;;;;;;;;5064271;28;20028;-77
2021/01/17 05:15:35;;;;;;;;;;;;;;;;;;5060051;28;20024;-77
2021/01/17 05:18:02;;;;;;;37.70;19.83;;;;;;;;;;5061764;28;19999;-77
2021/01/17 05:20:28;;;;;;;35.45;18.58;;;;;;;;;;5061411;28;20107;-77
2021/01/17 05:22:56;;;;;;;36.40;19.08;;;;;;;;;;5063965;28;20521;-78
2021/01/17 05:25:25;;;;;;;38.42;21.30;;;;;;;;;;5061774;28;20100;-77
2021/01/17 05:27:51;;;;;;;39.40;21.52;;;;;;;;;;5060431;28;20070;-77
2021/01/17 05:30:18;;;;;;;38.33;21.33;;;;;;;;;;5061895;28;20017;-77
2021/01/17 05:32:44;;;;;;;36.90;20.85;;;;;;;;;;5059478;28;20049;-77
2021/01/17 05:35:10;;;;;;;38.22;20.00;;;;;;;;;;5061561;28;20052;-77
2021/01/17 05:37:46;;;;;;;38.17;20.58;;;;;;;;;;5059684;28;20082;-77
2021/01/17 05:40:12;;;;;;;41.25;21.98;;;;;;;;;;5059064;28;20013;-76
2021/01/17 05:42:42;;;;;;;34.75;17.90;;;;;;;;;;5061404;28;20400;-77
2021/01/17 05:45:11;;;;;;;36.65;20.02;;;;;;;;;;5061221;28;20030;-76
2021/01/17 05:47:37;;;;;;;33.28;18.63;;;;;;;;;;5059514;28;20009;-77
2021/01/17 05:50:21;;;;;;;34.47;19.30;;;;;;;;;;5060911;28;20062;-77
2021/01/17 05:52:54;;;;;;;31.48;17.00;;;;;;;;;;5061065;28;20021;-77
2021/01/17 05:55:29;;;;;;;30.90;17.83;;;;;;;;;;5061411;28;20047;-77
2021/01/17 05:57:55;;;;;;;30.70;17.42;;;;;;;;;;5061725;28;20020;-77
2021/01/17 06:00:33;;;;;;;33.97;18.58;;;;;;;;;;5059712;28;20420;-77
2021/01/17 06:02:59;;;;;;;33.97;19.05;;;;;;;;;;5059792;28;20017;-77
2021/01/17 06:05:25;;;;;;;33.88;17.75;;;;;;;;;;5061813;28;20056;-77
2021/01/17 06:07:52;;;;;;;35.20;18.83;;;;;;;;;;5061374;28;20017;-76
2021/01/17 06:10:23;;;;;;;31.80;17.75;;;;;;;;;;5060237;28;20043;-76
2021/01/17 06:12:51;;;;;;;35.35;18.25;;;;;;;;;;5060157;28;20044;-77
2021/01/17 06:15:17;;;;;;;30.80;16.80;;;;;;;;;;5060963;28;20397;-77
2021/01/17 06:17:46;;;;;;;30.85;16.30;;;;;;;;;;5060051;28;20497;-77
2021/01/17 06:20:25;;;;;;;27.90;16.38;;;;;;;;;;5059598;28;20009;-77
2021/01/17 06:22:58;;;;;;;31.42;16.45;;;;;;;;;;5060242;28;20388;-77
2021/01/17 06:25:30;;;;;;;30.35;16.65;;;;;;;;;;5059711;28;20469;-76
2021/01/17 06:28:09;;;;;;;30.30;17.17;;;;;;;;;;5060664;28;20006;-76
2021/01/17 06:30:36;;;;;;;33.38;19.10;;;;;;;;;;5060725;28;20020;-77
2021/01/17 06:33:03;;;;;;;34.53;19.02;;;;;;;;;;5057253;28;20092;-76
2021/01/17 06:35:33;;;;;;;31.73;16.98;;;;;;;;;;5050426;28;20449;-77
2021/01/17 06:38:14;;;;;;;36.35;18.60;;;;;;;;;;5050646;28;20021;-77
2021/01/17 06:40:41;;;;;;;36.33;19.05;;;;;;;;;;5050539;28;20079;-76
2021/01/17 06:43:09;;;;;;;33.45;18.42;;;;;;;;;;5050473;28;20059;-76
2021/01/17 06:45:39;;;;;;;32.10;18.23;;;;;;;;;;5051416;28;20017;-77
2021/01/17 06:48:05;;;;;;;35.38;19.13;;;;;;;;;;5052021;28;20013;-76
2021/01/17 06:50:31;;;;;;;35.95;18.73;;;;;;;;;;5052823;28;20024;-76
2021/01/17 06:52:57;;;;;;;34.30;17.90;;;;;;;;;;5054454;28;20469;-76
2021/01/17 06:55:23;;;;;;;31.40;17.65;;;;;;;;;;5054161;28;20083;-76
2021/01/17 06:57:49;;;;;;;32.95;18.50;;;;;;;;;;5054574;28;20489;-76
2021/01/17 07:00:16;;;;;;;36.80;19.30;;;;;;;;;;5054487;28;20081;-76
2021/01/17 07:02:50;;;;;;;35.78;19.23;;;;;;;;;;5055470;28;20100;-76
2021/01/17 07:05:35;;;;;;;36.42;19.67;;;;;;;;;;5054414;28;20021;-76
2021/01/17 07:08:01;;;;;;;33.35;18.50;;;;;;;;;;5054382;28;20017;-76
2021/01/17 07:10:31;;;;;;;43.20;20.00;;;;;;;;;;5054364;28;20453;-76
2021/01/17 07:13:10;;;;;;;32.28;18.42;;;;;;;;;;5054301;28;20028;-76
2021/01/17 07:15:37;;;;;;;43.40;20.63;;;;;;;;;;5055048;28;20025;-76
2021/01/17 07:18:04;;;;;;;41.88;20.65;;;;;;;;;;5055381;28;20025;-76
2021/01/17 07:20:32;;;;;;;34.47;17.63;;;;;;;;;;5053856;28;20450;-76
2021/01/17 07:22:59;;;;;;;43.63;20.55;;;;;;;;;;5053882;28;20331;-75
2021/01/17 07:25:25;;;;;;;45.47;21.02;;;;;;;;;;5053827;28;20079;-76
2021/01/17 07:28:10;;;;;;;44.53;21.42;;;;;;;;;;5055289;28;20445;-76
2021/01/17 07:30:36;;;;;;;35.10;18.60;;;;;;;;;;5054939;28;20021;-76
2021/01/17 07:33:03;;;;;;;53.28;20.70;;;;;;;;;;5053782;28;20036;-76
2021/01/17 07:35:35;;;;;;;43.70;21.02;;;;;;;;;;5053468;28;20025;-76
2021/01/17 07:38:01;;;;;;;48.65;21.25;;;;;;;;;;5074427;28;20114;-77
2021/01/17 07:43:16;;;;;;;53.05;21.92;;;;;;;;;;5074948;28;20083;-76
2021/01/17 07:45:42;;;;;;;58.67;21.88;;;;;;;;;;5074735;28;20029;-77
2021/01/17 07:48:09;;;;;;;47.20;21.65;;;;;;;;;;5073581;28;20360;-77
2021/01/17 07:50:37;;;;;;;57.50;20.83;;;;;;;;;;5074689;28;20013;-76
2021/01/17 07:53:04;;;;;;;55.75;22.85;;;;;;;;;;5075414;28;20357;-77
2021/01/17 07:55:31;;;;;;;55.65;21.25;;;;;;;;;;5072973;28;20463;-75
2021/01/17 07:57:57;;;;;;;62.28;21.85;;;;;;;;;;5073345;28;20039;-76
2021/01/17 08:00:24;;;;;;;49.15;19.77;;;;;;;;;;5071084;28;20028;-76
2021/01/17 08:02:50;;;;;;;58.60;21.55;;;;;;;;;;5060700;28;20026;-77
2021/01/17 08:05:16;;;;;;;57.55;20.88;;;;;;;;;;5064760;28;20035;-77
2021/01/17 08:07:42;;;;;;;57.17;23.13;;;;;;;;;;5061037;28;20028;-77
2021/01/17 08:10:08;;;;;;;53.17;22.05;;;;;;;;;;5063723;28;20021;-77
2021/01/17 08:12:35;;;;;;;50.63;21.75;;;;;;;;;;5063609;28;20017;-77
2021/01/17 08:15:14;;;;;;;51.00;20.30;;;;;;;;;;5060811;28;20136;-77
2021/01/17 08:17:40;;;;;;;76.93;22.90;;;;;;;;;;5061501;28;20024;-77
2021/01/17 08:20:07;;;;;;;89.18;24.40;;;;;;;;;;5059987;28;20387;-77
2021/01/17 08:22:33;;;;;;;129.35;26.10;;;;;;;;;;5063378;28;20024;-77
2021/01/17 08:25:00;;;;;;;55.60;21.60;;;;;;;;;;5062280;28;20016;-76
2021/01/17 08:27:30;;;;;;;67.70;23.27;;;;;;;;;;5064902;28;20042;-77
2021/01/17 08:30:11;;;;;;;53.40;22.67;;;;;;;;;;5072552;28;20020;-77
2021/01/17 08:32:37;;;;;;;99.72;24.10;;;;;;;;;;5073729;28;20021;-77
2021/01/17 08:35:22;;;;;;;76.90;26.20;;;;;;;;;;5074385;28;20020;-77
2021/01/17 08:37:51;;;;;;;58.00;24.88;;;;;;;;;;5059977;28;20035;-77
2021/01/17 08:40:18;;;;;;;74.85;27.02;;;;;;;;;;5062295;28;20094;-77
2021/01/17 08:42:49;;;;;;;82.97;26.92;;;;;;;;;;5060689;28;20384;-76
2021/01/17 08:45:36;;;;;;;69.03;23.65;;;;;;;;;;5062494;28;20020;-76
2021/01/17 08:48:19;;;;;;;70.53;25.13;;;;;;;;;;5060163;28;20021;-76
2021/01/17 08:50:47;;;;;;;69.25;25.15;;;;;;;;;;5060416;28;20121;-77
2021/01/17 08:53:13;;;;;;;61.50;23.40;;;;;;;;;;5059728;28;20453;-76
2021/01/17 08:55:47;;;;;;;62.88;24.10;;;;;;;;;;5051820;28;20029;-77
2021/01/17 08:58:17;;;;;;;73.60;25.38;;;;;;;;;;5055149;28;20043;-76
2021/01/17 09:00:49;;;;;;;54.88;23.33;;;;;;;;;;5062633;28;20108;-77
2021/01/17 09:03:32;;;;;;;22.48;9.48;;;;;;;;;;5058368;28;20048;-77
2021/01/17 09:05:59;;;;;;;58.55;24.00;;;;;;;;;;5051964;28;20028;-77
2021/01/17 09:08:25;;;;;;;50.47;23.42;;;;;;;;;;5051717;28;20025;-77
2021/01/17 09:10:51;;;;;;;44.03;24.40;;;;;;;;;;5056274;28;20035;-78
2021/01/17 09:13:21;;;;;;;64.13;24.52;;;;;;;;;;5059304;28;20087;-79
2021/01/17 09:15:57;;;;;;;58.88;24.25;;;;;;;;;;5059028;28;20037;-77
2021/01/17 09:18:24;;;;;;;51.92;24.50;;;;;;;;;;5061034;28;20013;-78
2021/01/17 09:20:51;;;;;;;54.58;24.00;;;;;;;;;;5058248;28;20465;-77
2021/01/17 09:23:17;;;;;;;53.20;23.85;;;;;;;;;;5056977;28;20021;-78
2021/01/17 09:25:44;;;;;;;52.90;24.83;;;;;;;;;;5059640;28;20482;-77
2021/01/17 09:28:11;;;;;;;51.45;23.73;;;;;;;;;;5061048;28;20465;-78
2021/01/17 09:30:37;;;;;;;53.45;25.30;;;;;;;;;;5059091;28;20464;-79
2021/01/17 09:33:03;;;;;;;47.35;23.73;;;;;;;;;;5060184;28;20012;-78
2021/01/17 09:35:29;;;;;;;53.20;24.98;;;;;;;;;;5059639;28;20036;-79
2021/01/17 09:37:59;;;;;;;56.80;26.25;;;;;;;;;;5063281;28;20009;-78
2021/01/17 09:40:25;;;;;;;48.38;23.40;;;;;;;;;;5064827;28;20052;-78
2021/01/17 09:42:54;;;;;;;50.60;24.88;;;;;;;;;;5071188;28;20055;-78
2021/01/17 09:45:20;;;;;;;58.95;28.48;;;;;;;;;;5071612;28;20025;-80
2021/01/17 09:47:46;;;;;;;46.40;25.95;;;;;;;;;;5071365;28;20017;-80
2021/01/17 09:50:12;;;;;;;46.90;25.05;;;;;;;;;;5071574;28;20024;-79
2021/01/17 09:52:42;;;;;;;47.70;24.63;;;;;;;;;;5071243;28;20407;-79
2021/01/17 09:55:09;;;;;;;46.42;23.67;;;;;;;;;;5071095;28;20460;-77
2021/01/17 09:57:39;;;;;;;50.28;25.48;;;;;;;;;;5063427;28;20017;-79
2021/01/17 10:00:09;;;;;;;50.75;29.08;;;;;;;;;;5051105;28;20142;-77
2021/01/17 10:02:37;;;;;;;51.38;26.23;;;;;;;;;;5050850;28;20031;-76
2021/01/17 10:05:03;;;;;;;53.58;23.70;;;;;;;;;;5052324;28;20059;-74
2021/01/17 10:07:29;;;;;;;48.22;23.08;;;;;;;;;;5050812;28;20021;-76
2021/01/17 10:09:55;;;;;;;51.70;25.02;;;;;;;;;;5050978;28;20047;-74
2021/01/17 10:12:26;;;;;;;45.75;24.90;;;;;;;;;;5052376;28;20446;-75
2021/01/17 10:14:52;;;;;;;46.95;23.50;;;;;;;;;;5050742;28;20029;-78
2021/01/17 10:17:18;;;;;;;45.13;20.58;;;;;;;;;;5050823;28;20021;-75
2021/01/17 10:19:45;;;;;;;45.45;21.88;;;;;;;;;;5050710;28;20666;-75
2021/01/17 10:22:13;;;;;;;47.65;20.13;;;;;;;;;;5050624;28;20104;-76
2021/01/17 10:24:39;;;;;;;43.67;20.20;;;;;;;;;;5050515;28;20393;-77
2021/01/17 10:27:06;;;;;;;44.85;20.15;;;;;;;;;;5054172;28;20025;-77
2021/01/17 10:29:38;;;;;;;44.33;21.13;;;;;;;;;;5054727;28;20075;-76
2021/01/17 10:32:05;;;;;;;48.65;18.38;;;;;;;;;;5054935;28;20017;-77
2021/01/17 10:34:34;;;;;;;40.00;18.35;;;;;;;;;;5054533;28;20393;-75
2021/01/17 10:37:05;;;;;;;46.30;18.17;;;;;;;;;;5054841;28;20082;-76
2021/01/17 10:39:31;;;;;;;40.35;17.40;;;;;;;;;;5054486;28;20025;-80
2021/01/17 10:42:05;;;;;;;39.08;17.48;;;;;;;;;;5054424;28;20434;-76
2021/01/17 10:44:33;;;;;;;39.92;15.82;;;;;;;;;;5054290;28;20052;-76
2021/01/17 10:47:01;;;;;;;38.15;17.23;;;;;;;;;;5054801;28;20021;-75
2021/01/17 10:49:29;;;;;;;53.25;16.73;;;;;;;;;;5054288;28;20024;-76
2021/01/17 10:51:57;;;;;;;40.53;15.18;;;;;;;;;;5055728;28;20044;-74
2021/01/17 10:54:25;;;;;;;45.75;14.73;;;;;;;;;;5053993;28;20020;-75
2021/01/17 10:56:51;;;;;;;38.95;14.75;;;;;;;;;;5055498;28;20044;-74
2021/01/17 10:59:18;;;;;;;40.70;15.20;;;;;;;;;;5055698;28;20077;-76
2021/01/17 11:01:47;;;;;;;46.42;15.15;;;;;;;;;;5055442;28;20096;-76
2021/01/17 11:04:14;;;;;;;37.50;14.10;;;;;;;;;;5054655;28;20408;-74
2021/01/17 11:06:42;;;;;;;31.98;13.55;;;;;;;;;;5055370;28;20029;-76
2021/01/17 11:09:11;;;;;;;34.30;13.20;;;;;;;;;;5054248;28;20049;-76
2021/01/17 11:11:47;;;;;;;34.67;13.45;;;;;;;;;;5053932;28;20043;-76
2021/01/17 11:14:14;;;;;;;30.10;11.85;;;;;;;;;;5054100;28;20025;-76
2021/01/17 11:16:43;;;;;;;43.83;16.90;;;;;;;;;;5055015;28;20112;-73
2021/01/17 11:19:11;;;;;;;41.22;17.50;;;;;;;;;;5055436;28;20024;-75
2021/01/17 11:21:37;;;;;;;35.55;12.02;;;;;;;;;;5054783;28;20373;-74
2021/01/17 11:24:04;;;;;;;34.78;13.30;;;;;;;;;;5053435;28;20041;-75
2021/01/17 11:26:30;;;;;;;33.03;13.93;;;;;;;;;;5053664;28;20032;-75
2021/01/17 11:28:58;;;;;;;37.05;12.85;;;;;;;;;;5055196;28;20017;-75
2021/01/17 11:31:24;;;;;;;22.05;9.23;;;;;;;;;;5053875;28;20067;-75
2021/01/17 11:33:51;;;;;;;31.73;13.38;;;;;;;;;;5054797;28;20449;-75
2021/01/17 11:36:25;;;;;;;31.00;9.73;;;;;;;;;;5053526;28;20454;-76
2021/01/17 11:38:53;;;;;;;28.67;10.80;;;;;;;;;;5053345;28;20097;-74
2021/01/17 11:41:19;;;;;;;18.40;8.77;;;;;;;;;;5053326;28;20029;-73
2021/01/17 11:43:45;;;;;;;28.15;9.10;;;;;;;;;;5054359;28;20067;-74
2021/01/17 11:46:12;;;;;;;27.80;9.65;;;;;;;;;;5055215;28;20021;-76
2021/01/17 11:48:39;;;;;;;25.83;9.30;;;;;;;;;;5053256;28;20458;-75
2021/01/17 11:51:06;;;;;;;22.92;8.70;;;;;;;;;;5054763;28;20024;-74
2021/01/17 11:53:32;;;;;;;21.95;7.75;;;;;;;;;;5054186;28;20013;-76
2021/01/17 11:55:59;;;;;;;30.10;9.00;;;;;;;;;;5053236;28;20025;-76
2021/01/17 11:58:28;;;;;;;23.10;8.25;;;;;;;;;;5054467;28;20016;-75
2021/01/17 12:00:54;;;;;;;30.27;7.95;;;;;;;;;;5052452;28;20020;-74
2021/01/17 12:03:28;;;;;;;29.35;9.57;;;;;;;;;;5053087;28;20024;-75
2021/01/17 12:06:02;;;;;;;19.23;7.18;;;;;;;;;;5053917;28;20512;-75
2021/01/17 12:08:48;;;;;;;16.90;5.85;;;;;;;;;;5052388;28;20591;-75
2021/01/17 12:11:26;;;;;;;20.00;6.40;;;;;;;;;;5052007;28;20338;-75
2021/01/17 12:13:52;;;;;;;22.63;6.93;;;;;;;;;;5053154;28;20021;-75
2021/01/17 12:16:29;;;;;;;21.60;7.38;;;;;;;;;;5053555;28;20029;-75
2021/01/17 12:18:55;;;;;;;21.40;7.05;;;;;;;;;;5052550;28;20052;-74
2021/01/17 12:21:22;;;;;;;30.50;6.78;;;;;;;;;;5053709;28;20568;-74
2021/01/17 12:23:48;;;;;;;20.25;7.10;;;;;;;;;;5052516;28;20028;-75
2021/01/17 12:26:15;;;;;;;22.38;6.05;;;;;;;;;;5053897;28;20028;-75
2021/01/17 12:28:42;;;;;;;22.50;5.63;;;;;;;;;;5052351;28;20017;-74
2021/01/17 12:31:12;;;;;;;21.15;6.15;;;;;;;;;;5052549;28;20393;-74
2021/01/17 12:33:38;;;;;;;14.68;5.50;;;;;;;;;;5052333;28;20100;-77
2021/01/17 12:36:11;;;;;;;22.15;5.85;;;;;;;;;;5053531;28;20031;-79
2021/01/17 12:38:37;;;;;;;17.63;5.40;;;;;;;;;;5052348;28;20021;-78
2021/01/17 12:41:07;;;;;;;21.88;5.65;;;;;;;;;;5052588;28;20035;-79
2021/01/17 12:43:33;;;;;;;21.35;5.80;;;;;;;;;;5051678;28;20045;-79
2021/01/17 12:45:59;;;;;;;28.25;7.78;;;;;;;;;;5052563;28;20020;-78
2021/01/17 12:48:25;;;;;;;16.65;5.32;;;;;;;;;;5053420;28;20357;-78
2021/01/17 12:50:51;;;;;;;16.85;5.05;;;;;;;;;;5052114;28;20029;-78
2021/01/17 12:53:17;;;;;;;20.90;6.13;;;;;;;;;;5053621;28;20086;-78
2021/01/17 12:55:47;;;;;;;21.83;5.85;;;;;;;;;;5051838;28;20442;-78
2021/01/17 12:58:14;;;;;;;21.25;5.63;;;;;;;;;;5053525;28;20048;-78
2021/01/17 13:00:40;;;;;;;19.00;5.45;;;;;;;;;;5052073;28;20094;-77
2021/01/17 13:03:06;;;;;;;14.52;5.15;;;;;;;;;;5052103;28;20083;-78
2021/01/17 13:05:32;;;;;;;16.70;4.50;;;;;;;;;;5051911;28;20112;-78
2021/01/17 13:07:59;;;;;;;15.23;5.47;;;;;;;;;;5053338;28;20021;-77
2021/01/17 13:10:25;;;;;;;14.90;4.22;;;;;;;;;;5053227;28;20024;-77
2021/01/17 13:12:51;;;;;;;20.00;4.80;;;;;;;;;;5052979;28;20035;-77
2021/01/17 13:15:18;;;;;;;24.25;5.55;;;;;;;;;;5051761;28;20028;-79
2021/01/17 13:17:44;;;;;;;17.23;5.05;;;;;;;;;;5052532;28;20020;-78
2021/01/17 13:20:10;;;;;;;18.45;4.68;;;;;;;;;;5051208;28;20021;-78
2021/01/17 13:22:36;;;;;;;16.92;4.63;;;;;;;;;;5050779;28;20154;-77
2021/01/17 13:25:03;;;;;;;21.85;5.30;;;;;;;;;;5052217;28;20032;-79
2021/01/17 13:27:29;;;;;;;15.70;3.50;;;;;;;;;;5050819;28;20021;-77
2021/01/17 13:29:55;;;;;;;16.60;4.22;;;;;;;;;;5051727;28;20378;-77
2021/01/17 13:32:21;;;;;;;15.52;5.05;;;;;;;;;;5052123;28;20044;-78
2021/01/17 13:34:47;;;;;;;19.05;3.95;;;;;;;;;;5051687;28;20021;-78
2021/01/17 13:37:17;;;;;;;14.00;4.82;;;;;;;;;;5051934;28;20060;-78
2021/01/17 13:39:47;;;;;;;11.17;4.37;;;;;;;;;;5051391;28;20063;-77
2021/01/17 13:42:20;;;;;;;21.05;5.20;;;;;;;;;;5050347;28;20162;-77
2021/01/17 13:44:46;;;;;;;12.75;3.92;;;;;;;;;;5050212;28;20027;-77
2021/01/17 13:47:12;;;;;;;15.02;3.17;;;;;;;;;;5050504;28;20047;-77
2021/01/17 13:49:38;;;;;;;18.02;3.80;;;;;;;;;;5051524;28;20071;-78
2021/01/17 13:52:05;;;;;;;14.98;3.08;;;;;;;;;;5050259;28;20017;-78
2021/01/17 13:54:31;;;;;;;17.92;3.28;;;;;;;;;;5050388;28;20075;-78
2021/01/17 13:56:57;;;;;;;14.07;3.53;;;;;;;;;;5051122;28;20074;-78
2021/01/17 13:59:23;;;;;;;22.40;3.85;;;;;;;;;;5051200;28;20024;-78
2021/01/17 14:01:50;;;;;;;17.25;3.58;;;;;;;;;;5049420;28;20453;-79
2021/01/17 14:04:16;;;;;;;15.52;3.30;;;;;;;;;;5051416;28;20013;-79
2021/01/17 14:06:42;;;;;;;18.30;3.67;;;;;;;;;;5049907;28;20032;-78
2021/01/17 14:09:08;;;;;;;15.68;3.40;;;;;;;;;;5051708;28;20021;-78
2021/01/17 14:11:35;;;;;;;12.82;3.20;;;;;;;;;;5049968;28;20017;-78
2021/01/17 14:14:01;;;;;;;15.25;3.85;;;;;;;;;;5049925;28;20080;-79
2021/01/17 14:16:27;;;;;;;14.70;3.20;;;;;;;;;;5049941;28;20029;-78
2021/01/17 14:18:53;;;;;;;16.70;4.03;;;;;;;;;;5051115;28;20028;-78
2021/01/17 14:21:19;;;;;;;18.60;3.33;;;;;;;;;;5068601;28;20021;-79
2021/01/17 14:23:45;;;;;;;17.10;4.03;;;;;;;;;;5072447;28;20025;-78
2021/01/17 14:26:11;;;;;;;19.77;3.92;;;;;;;;;;5071232;28;20373;-77
2021/01/17 14:28:37;;;;;;;21.02;3.50;;;;;;;;;;5072428;28;20021;-76